Time;durP1;ratioP1;P1;durP2;ratioP2;P2;SDS_P1;SDS_P2;PMS_P1;PMS_P2;Temp;Humidity;BMP_temperature;BMP_pressure;BME280_temperature;BME280_humidity;BME280_pressure;Samples;Min_cycle;Max_cycle;Signal;HPM_P1;HPM_P2
2024/04/06 00:00:45;;;;;;;;;;;23.00;51.00;;;;;;3053820;19;4692;-26
2024/04/06 00:01:45;;;;;;;;;;;23.00;51.10;;;;;;3031363;19;4926;-25
2024/04/06 00:02:46;;;;;;;;;;;22.60;50.80;;;;;;3053843;19;4621;-26
2024/04/06 00:03:47;;;;;;;;;;;23.00;51.10;;;;;;3032717;19;4655;-25
2024/04/06 00:04:48;;;;;;;;;;;23.00;51.10;;;;;;3053805;19;4678;-24
2024/04/06 00:05:49;;;;;;;;;;;23.00;51.90;;;;;;3053690;19;4660;-24
2024/04/06 00:06:50;;;;;;;;;;;23.00;51.30;;;;;;3032131;19;4675;-26
2024/04/06 00:07:50;;;;;;;;;;;23.00;51.30;;;;;;3053810;19;4622;-24
2024/04/06 00:08:52;;;;;;;;;;;23.00;51.30;;;;;;3052049;19;4846;-25
2024/04/06 00:09:53;;;;;;;;;;;23.00;51.40;;;;;;3052838;19;4710;-25
2024/04/06 00:10:54;;;;;;;;;;;23.00;51.30;;;;;;3053335;19;4689;-24
2024/04/06 00:11:55;;;;;;;;;;;23.00;51.30;;;;;;3031886;19;4712;-25
2024/04/06 00:12:55;;;;;;;;;;;23.00;51.30;;;;;;3053056;19;4667;-24
2024/04/06 00:13:56;;;;;;;;;;;23.00;51.30;;;;;;3052111;19;4626;-28
2024/04/06 00:14:57;;;;;;;;;;;22.90;51.30;;;;;;3030896;19;4571;-26
2024/04/06 00:15:57;;;;;;;;;;;22.90;51.40;;;;;;3052565;19;4709;-24
2024/04/06 00:16:58;;;;;;;;;;;22.90;51.40;;;;;;3030804;19;4809;-24
2024/04/06 00:17:58;;;;;;;;;;;22.90;51.50;;;;;;3052800;19;4663;-25
2024/04/06 00:18:59;;;;;;;;;;;22.90;51.50;;;;;;3052332;19;4678;-26
2024/04/06 00:20:00;;;;;;;;;;;22.90;51.50;;;;;;3031745;19;4722;-24
2024/04/06 00:21:00;;;;;;;;;;;22.90;51.40;;;;;;3052673;19;4662;-24
2024/04/06 00:22:02;;;;;;;;;;;22.90;51.40;;;;;;3053471;19;4596;-25
2024/04/06 00:23:03;;;;;;;;;;;22.90;51.50;;;;;;3031071;19;4656;-24
2024/04/06 00:24:04;;;;;;;;;;;22.90;51.50;;;;;;3052866;19;4680;-27
2024/04/06 00:25:05;;;;;;;;;;;22.90;51.60;;;;;;3031645;19;4671;-24
2024/04/06 00:26:05;;;;;;;;;;;22.90;51.50;;;;;;3052954;19;4657;-25
2024/04/06 00:27:06;;;;;;;;;;;22.90;51.60;;;;;;3051776;19;21630;-24
2024/04/06 00:28:06;;;;;;;;;;;22.80;51.60;;;;;;3030371;19;21751;-24
2024/04/06 00:29:07;;;;;;;;;;;22.80;51.60;;;;;;3052127;19;4931;-25
2024/04/06 00:30:09;;;;;;;;;;;22.80;51.60;;;;;;3052450;19;4789;-25
2024/04/06 00:31:10;;;;;;;;;;;22.90;51.70;;;;;;3030691;19;4608;-24
2024/04/06 00:32:11;;;;;;;;;;;22.80;52.10;;;;;;3051445;19;4719;-24
2024/04/06 00:33:11;;;;;;;;;;;22.80;51.70;;;;;;3031761;19;4579;-25
2024/04/06 00:34:12;;;;;;;;;;;22.80;51.70;;;;;;3051002;19;4761;-35
2024/04/06 00:35:13;;;;;;;;;;;22.80;51.70;;;;;;3052219;19;4745;-31
2024/04/06 00:36:13;;;;;;;;;;;22.80;51.70;;;;;;3031447;19;4559;-32
2024/04/06 00:37:14;;;;;;;;;;;22.80;51.80;;;;;;3052835;19;4849;-35
2024/04/06 00:38:15;;;;;;;;;;;22.80;51.80;;;;;;3031436;19;4712;-32
2024/04/06 00:39:15;;;;;;;;;;;22.80;51.80;;;;;;3051609;19;4789;-30
2024/04/06 00:40:16;;;;;;;;;;;22.80;51.70;;;;;;3052589;19;4660;-33
2024/04/06 00:41:17;;;;;;;;;;;22.80;51.80;;;;;;3031152;19;4599;-34
2024/04/06 00:42:18;;;;;;;;;;;22.80;51.80;;;;;;3051419;19;4779;-34
2024/04/06 00:43:19;;;;;;;;;;;22.80;52.40;;;;;;3052442;19;4699;-33
2024/04/06 00:44:20;;;;;;;;;;;22.80;51.90;;;;;;3030432;19;4659;-33
2024/04/06 00:45:20;;;;;;;;;;;22.80;51.80;;;;;;3052052;19;4681;-35
2024/04/06 00:46:21;;;;;;;;;;;22.80;51.90;;;;;;3031635;19;4617;-31
2024/04/06 00:47:22;;;;;;;;;;;22.80;51.80;;;;;;3052172;19;4708;-34
2024/04/06 00:48:22;;;;;;;;;;;22.80;51.90;;;;;;3053110;19;4625;-33
2024/04/06 00:49:23;;;;;;;;;;;22.80;51.90;;;;;;3030664;19;4486;-32
2024/04/06 00:50:24;;;;;;;;;;;22.80;51.90;;;;;;3051213;19;4698;-32
2024/04/06 00:51:24;;;;;;;;;;;22.80;51.90;;;;;;3053202;19;4617;-33
2024/04/06 00:52:25;;;;;;;;;;;22.70;51.80;;;;;;3030172;19;4606;-34
2024/04/06 00:53:25;;;;;;;;;;;22.70;51.90;;;;;;3052455;19;4747;-31
2024/04/06 00:54:26;;;;;;;;;;;22.70;51.90;;;;;;3030757;19;4843;-24
2024/04/06 00:55:27;;;;;;;;;;;22.70;52.00;;;;;;3052816;19;5136;-25
2024/04/06 00:56:27;;;;;;;;;;;22.70;51.90;;;;;;3053206;19;4659;-25
2024/04/06 00:57:28;;;;;;;;;;;22.70;51.90;;;;;;3031165;19;4632;-25
2024/04/06 00:58:29;;;;;;;;;;;22.70;51.90;;;;;;3053263;19;4650;-25
2024/04/06 00:59:29;;;;;;;;;;;22.70;51.90;;;;;;3050880;19;4869;-24
2024/04/06 01:00:30;;;;;;;;;;;22.70;52.00;;;;;;3030576;19;4581;-24
2024/04/06 01:01:30;;;;;;;;;;;22.70;52.10;;;;;;3052874;19;4689;-25
2024/04/06 01:02:31;;;;;;;;;;;22.70;52.00;;;;;;3031042;19;4815;-24
2024/04/06 01:03:32;;;;;;;;;;;22.70;52.00;;;;;;3052717;19;4668;-24
2024/04/06 01:04:33;;;;;;;;;;;22.70;52.00;;;;;;3052344;19;4702;-24
2024/04/06 01:05:33;;;;;;;;;;;22.70;52.00;;;;;;3031152;19;4536;-24
2024/04/06 01:06:34;;;;;;;;;;;22.70;52.00;;;;;;3052549;19;4837;-24
2024/04/06 01:07:39;;;;;;;;;;;22.70;52.10;;;;;;3030648;19;4677;-24
2024/04/06 01:08:40;;;;;;;;;;;22.70;52.10;;;;;;3052265;19;4756;-24
2024/04/06 01:09:41;;;;;;;;;;;22.70;52.10;;;;;;3052029;19;4637;-24
2024/04/06 01:10:41;;;;;;;;;;;22.70;52.10;;;;;;3031281;19;4636;-24
2024/04/06 01:11:42;;;;;;;;;;;22.60;52.10;;;;;;3051970;19;4758;-23
2024/04/06 01:12:43;;;;;;;;;;;22.60;52.10;;;;;;3052672;19;4668;-25
2024/04/06 01:13:44;;;;;;;;;;;22.60;52.10;;;;;;3030921;19;4698;-24
2024/04/06 01:14:45;;;;;;;;;;;22.70;52.20;;;;;;3052008;19;4776;-25
2024/04/06 01:15:46;;;;;;;;;;;22.60;52.20;;;;;;3030706;19;4641;-23
2024/04/06 01:16:46;;;;;;;;;;;22.60;52.20;;;;;;3052677;19;4677;-26
2024/04/06 01:17:47;;;;;;;;;;;22.60;52.10;;;;;;3052562;19;4689;-24
2024/04/06 01:18:48;;;;;;;;;;;22.60;52.20;;;;;;3030854;19;4681;-25
2024/04/06 01:19:48;;;;;;;;;;;22.60;52.20;;;;;;3052351;19;4637;-25
2024/04/06 01:20:49;;;;;;;;;;;22.60;52.20;;;;;;3053104;19;4693;-26
2024/04/06 01:21:50;;;;;;;;;;;22.60;52.20;;;;;;3030366;19;4565;-24
2024/04/06 01:22:51;;;;;;;;;;;22.60;52.30;;;;;;3052131;19;4620;-25
2024/04/06 01:23:52;;;;;;;;;;;22.60;52.30;;;;;;3030442;19;4715;-25
2024/04/06 01:24:52;;;;;;;;;;;22.60;52.20;;;;;;3052550;19;4646;-24
2024/04/06 01:25:53;;;;;;;;;;;22.60;52.30;;;;;;3052166;19;4626;-25
2024/04/06 01:26:54;;;;;;;;;;;22.60;52.30;;;;;;3030458;19;4599;-24
2024/04/06 01:27:55;;;;;;;;;;;22.60;52.40;;;;;;3052385;19;4632;-24
2024/04/06 01:28:55;;;;;;;;;;;22.60;52.40;;;;;;3030700;19;4640;-25
2024/04/06 01:29:56;;;;;;;;;;;22.60;52.50;;;;;;3052171;19;4620;-25
2024/04/06 01:30:56;;;;;;;;;;;21.70;51.90;;;;;;3052005;19;4698;-24
2024/04/06 01:31:57;;;;;;;;;;;22.60;52.40;;;;;;3030388;19;4814;-23
2024/04/06 01:32:58;;;;;;;;;;;22.60;52.30;;;;;;3052033;19;4621;-28
2024/04/06 01:33:58;;;;;;;;;;;22.50;52.30;;;;;;3052421;19;4609;-24
2024/04/06 01:34:59;;;;;;;;;;;22.60;52.40;;;;;;3030027;19;4631;-24
2024/04/06 01:36:00;;;;;;;;;;;22.60;52.40;;;;;;3052102;19;4798;-25
2024/04/06 01:37:00;;;;;;;;;;;22.60;52.40;;;;;;3029656;19;5124;-23
2024/04/06 01:38:01;;;;;;;;;;;22.50;52.40;;;;;;3052433;19;4677;-24
2024/04/06 01:39:02;;;;;;;;;;;22.50;52.40;;;;;;3051669;19;4717;-24
2024/04/06 01:40:03;;;;;;;;;;;22.50;52.40;;;;;;3030701;19;4634;-26
2024/04/06 01:41:03;;;;;;;;;;;22.50;52.50;;;;;;3052083;19;4669;-24
2024/04/06 01:42:04;;;;;;;;;;;22.50;52.40;;;;;;3050457;19;4654;-26
2024/04/06 01:43:05;;;;;;;;;;;22.50;52.50;;;;;;3029532;19;4617;-25
2024/04/06 01:44:05;;;;;;;;;;;22.50;52.50;;;;;;3051454;19;4814;-24
2024/04/06 01:45:06;;;;;;;;;;;22.50;52.50;;;;;;3029410;19;14202;-28
2024/04/06 01:46:07;;;;;;;;;;;22.50;52.50;;;;;;3051645;19;4709;-32
2024/04/06 01:47:08;;;;;;;;;;;22.50;52.50;;;;;;3051027;19;4649;-33
2024/04/06 01:48:08;;;;;;;;;;;22.50;52.60;;;;;;3030219;19;4185;-31
2024/04/06 01:49:09;;;;;;;;;;;22.50;52.50;;;;;;3050111;19;4671;-35
2024/04/06 01:50:11;;;;;;;;;;;22.50;52.50;;;;;;3051730;19;4688;-31
2024/04/06 01:51:13;;;;;;;;;;;22.50;52.60;;;;;;3029996;19;4628;-32
2024/04/06 01:52:14;;;;;;;;;;;22.50;52.50;;;;;;3050918;19;4843;-32
2024/04/06 01:53:15;;;;;;;;;;;22.50;52.50;;;;;;3030266;19;4589;-32
2024/04/06 01:54:16;;;;;;;;;;;22.50;52.70;;;;;;3051709;19;4884;-35
2024/04/06 01:55:16;;;;;;;;;;;22.50;52.50;;;;;;3051197;19;4676;-31
2024/04/06 01:56:17;;;;;;;;;;;22.50;52.70;;;;;;3030591;19;5265;-33
2024/04/06 01:57:17;;;;;;;;;;;22.50;52.70;;;;;;3051547;19;4651;-35
2024/04/06 01:58:18;;;;;;;;;;;22.50;52.60;;;;;;3029530;19;4679;-34
2024/04/06 01:59:19;;;;;;;;;;;22.50;52.70;;;;;;3051701;19;4821;-31
2024/04/06 02:00:19;;;;;;;;;;;22.40;52.50;;;;;;3050451;19;4678;-35
2024/04/06 02:01:20;;;;;;;;;;;22.40;52.50;;;;;;3026808;19;4597;-33
2024/04/06 02:02:20;;;;;;;;;;;22.40;52.60;;;;;;3049010;19;4735;-32
2024/04/06 02:03:21;;;;;;;;;;;22.50;52.70;;;;;;3051329;19;4714;-31
2024/04/06 02:04:22;;;;;;;;;;;22.40;52.60;;;;;;3029708;19;4555;-31
2024/04/06 02:05:22;;;;;;;;;;;22.50;52.70;;;;;;3051691;19;4667;-33
2024/04/06 02:06:23;;;;;;;;;;;22.40;53.40;;;;;;3029762;19;4718;-35
2024/04/06 02:07:23;;;;;;;;;;;22.40;52.60;;;;;;3051204;19;4707;-33
2024/04/06 02:08:24;;;;;;;;;;;22.40;52.60;;;;;;3050408;19;4729;-36
2024/04/06 02:09:25;;;;;;;;;;;22.50;52.60;;;;;;3029458;19;4745;-36
2024/04/06 02:10:25;;;;;;;;;;;22.40;52.70;;;;;;3051847;19;4689;-38
2024/04/06 02:11:26;;;;;;;;;;;22.40;52.70;;;;;;3055122;19;4600;-31
2024/04/06 02:12:27;;;;;;;;;;;22.40;52.70;;;;;;3032013;19;4609;-30
2024/04/06 02:13:28;;;;;;;;;;;22.40;52.60;;;;;;3054428;19;4652;-32
2024/04/06 02:14:28;;;;;;;;;;;22.40;52.50;;;;;;3033280;19;4629;-33
2024/04/06 02:15:30;;;;;;;;;;;22.40;52.70;;;;;;3054116;19;5377;-33
2024/04/06 02:16:31;;;;;;;;;;;22.40;52.60;;;;;;3054810;19;4682;-34
2024/04/06 02:17:31;;;;;;;;;;;22.40;52.60;;;;;;3032812;19;4473;-32
2024/04/06 02:18:32;;;;;;;;;;;22.30;52.50;;;;;;3053945;19;4672;-34
2024/04/06 02:19:33;;;;;;;;;;;22.40;52.50;;;;;;3039194;19;4835;-32
2024/04/06 02:20:33;;;;;;;;;;;22.40;52.50;;;;;;3054259;19;4773;-32
2024/04/06 02:21:34;;;;;;;;;;;22.40;52.70;;;;;;3054921;19;4631;-32
2024/04/06 02:22:35;;;;;;;;;;;22.40;52.50;;;;;;3032686;19;4563;-34
2024/04/06 02:23:35;;;;;;;;;;;22.40;52.60;;;;;;3054015;19;4800;-32
2024/04/06 02:24:36;;;;;;;;;;;22.30;52.50;;;;;;3055149;19;4685;-34
2024/04/06 02:25:37;;;;;;;;;;;22.40;52.50;;;;;;3033254;19;4509;-31
2024/04/06 02:26:37;;;;;;;;;;;22.30;52.40;;;;;;3053952;19;4624;-34
2024/04/06 02:27:38;;;;;;;;;;;22.30;52.40;;;;;;3032947;19;4617;-32
2024/04/06 02:28:39;;;;;;;;;;;22.30;52.50;;;;;;3054088;19;4691;-35
2024/04/06 02:29:40;;;;;;;;;;;22.40;52.50;;;;;;3054326;19;4699;-35
2024/04/06 02:30:41;;;;;;;;;;;22.40;52.60;;;;;;3033237;19;4873;-33
2024/04/06 02:31:42;;;;;;;;;;;22.30;52.40;;;;;;3054933;19;4626;-33
2024/04/06 02:32:42;;;;;;;;;;;22.30;52.50;;;;;;3055001;19;4618;-32
2024/04/06 02:33:43;;;;;;;;;;;22.30;52.40;;;;;;3032461;19;4655;-34
2024/04/06 02:34:43;;;;;;;;;;;22.40;52.10;;;;;;3054353;19;4621;-33
2024/04/06 02:35:44;;;;;;;;;;;22.40;52.00;;;;;;3032829;19;4697;-36
2024/04/06 02:36:45;;;;;;;;;;;22.50;52.00;;;;;;3054158;19;4678;-32
2024/04/06 02:37:45;;;;;;;;;;;22.60;51.90;;;;;;3054320;19;4820;-31
2024/04/06 02:38:49;;;;;;;;;;;22.70;51.70;;;;;;3032830;19;4678;-33
2024/04/06 02:39:49;;;;;;;;;;;22.80;51.60;;;;;;3054619;19;4785;-34
2024/04/06 02:40:50;;;;;;;;;;;22.90;51.30;;;;;;3055054;19;4589;-34
2024/04/06 02:41:51;;;;;;;;;;;23.00;51.10;;;;;;3032408;19;4562;-34
2024/04/06 02:42:51;;;;;;;;;;;23.00;50.70;;;;;;3054249;19;4631;-33
2024/04/06 02:43:52;;;;;;;;;;;23.10;50.50;;;;;;3030666;19;4579;-32
2024/04/06 02:44:52;;;;;;;;;;;23.10;51.10;;;;;;3053880;19;4663;-33
2024/04/06 02:45:53;;;;;;;;;;;23.10;50.30;;;;;;3053720;19;4670;-36
2024/04/06 02:46:54;;;;;;;;;;;23.10;50.30;;;;;;3032447;19;4697;-34
2024/04/06 02:47:54;;;;;;;;;;;23.20;50.20;;;;;;3053681;19;4609;-33
2024/04/06 02:48:55;;;;;;;;;;;23.10;50.00;;;;;;3032558;19;4636;-33
2024/04/06 02:49:56;;;;;;;;;;;23.20;50.00;;;;;;3054478;19;4608;-32
2024/04/06 02:50:57;;;;;;;;;;;23.20;49.90;;;;;;3052841;19;4647;-32
2024/04/06 02:51:57;;;;;;;;;;;23.20;50.00;;;;;;3033158;19;4584;-34
2024/04/06 02:52:58;;;;;;;;;;;23.20;49.80;;;;;;3054475;19;4782;-32
2024/04/06 02:54:00;;;;;;;;;;;23.30;49.80;;;;;;3053075;19;4700;-34
2024/04/06 02:55:00;;;;;;;;;;;23.30;49.60;;;;;;3032227;19;4604;-31
2024/04/06 02:56:01;;;;;;;;;;;23.30;49.50;;;;;;3054136;19;4672;-32
2024/04/06 02:57:02;;;;;;;;;;;23.40;49.40;;;;;;3032792;19;4598;-33
2024/04/06 02:58:02;;;;;;;;;;;23.40;49.30;;;;;;3054310;19;4553;-30
2024/04/06 02:59:03;;;;;;;;;;;23.40;49.30;;;;;;3053894;19;4600;-34
2024/04/06 03:00:04;;;;;;;;;;;23.40;49.30;;;;;;3032827;19;4599;-35
2024/04/06 03:01:05;;;;;;;;;;;23.40;49.20;;;;;;3053984;19;4776;-34
2024/04/06 03:02:07;;;;;;;;;;;23.40;49.20;;;;;;3054255;19;4560;-33
2024/04/06 03:03:08;;;;;;;;;;;23.40;49.20;;;;;;3032532;19;4317;-33
2024/04/06 03:04:09;;;;;;;;;;;23.40;49.20;;;;;;3053025;19;4671;-30
2024/04/06 03:05:10;;;;;;;;;;;23.40;49.10;;;;;;3031919;19;4607;-36
2024/04/06 03:06:10;;;;;;;;;;;23.50;49.20;;;;;;3053644;19;4654;-34
2024/04/06 03:07:11;;;;;;;;;;;23.50;49.10;;;;;;3054016;19;4632;-32
2024/04/06 03:08:12;;;;;;;;;;;23.50;49.00;;;;;;3032523;19;4544;-32
2024/04/06 03:09:13;;;;;;;;;;;23.50;49.40;;;;;;3053129;19;4737;-34
2024/04/06 03:10:13;;;;;;;;;;;23.70;48.70;;;;;;3032179;19;4658;-31
2024/04/06 03:11:14;;;;;;;;;;;23.60;48.60;;;;;;3054064;19;4662;-32
2024/04/06 03:12:15;;;;;;;;;;;23.60;48.50;;;;;;3053944;19;4698;-35
2024/04/06 03:13:15;;;;;;;;;;;23.60;48.50;;;;;;3033021;19;4509;-32
2024/04/06 03:14:16;;;;;;;;;;;23.60;48.50;;;;;;3054207;19;4665;-35
2024/04/06 03:15:16;;;;;;;;;;;23.60;48.40;;;;;;3054155;19;4668;-24
2024/04/06 03:16:17;;;;;;;;;;;23.60;48.30;;;;;;3032494;19;4611;-24
2024/04/06 03:17:18;;;;;;;;;;;23.60;48.30;;;;;;3053853;19;4722;-23
2024/04/06 03:18:18;;;;;;;;;;;23.70;48.30;;;;;;3032154;19;4699;-24
2024/04/06 03:19:19;;;;;;;;;;;23.60;48.30;;;;;;3051020;19;4684;-23
2024/04/06 03:20:20;;;;;;;;;;;23.60;48.20;;;;;;3053620;19;4636;-26
2024/04/06 03:21:21;;;;;;;;;;;23.60;48.20;;;;;;3032521;19;4527;-26
2024/04/06 03:22:21;;;;;;;;;;;23.60;48.20;;;;;;3051987;19;4686;-23
2024/04/06 03:23:22;;;;;;;;;;;23.60;48.20;;;;;;3053467;19;4782;-23
2024/04/06 03:24:23;;;;;;;;;;;23.60;48.10;;;;;;3031909;19;4800;-25
2024/04/06 03:25:23;;;;;;;;;;;23.60;48.20;;;;;;3053339;19;4664;-23
2024/04/06 03:26:24;;;;;;;;;;;23.60;48.10;;;;;;3032012;19;4610;-24
2024/04/06 03:27:26;;;;;;;;;;;23.60;48.10;;;;;;3053718;19;4699;-27
2024/04/06 03:28:26;;;;;;;;;;;23.60;48.10;;;;;;3054042;19;4708;-26
2024/04/06 03:29:27;;;;;;;;;;;23.60;48.10;;;;;;3032185;19;4495;-25
2024/04/06 03:30:28;;;;;;;;;;;23.60;48.10;;;;;;3053411;19;4729;-27
2024/04/06 03:31:29;;;;;;;;;;;23.60;48.10;;;;;;3053763;19;4689;-24
2024/04/06 03:32:29;;;;;;;;;;;23.60;48.10;;;;;;3031975;19;4496;-25
2024/04/06 03:33:30;;;;;;;;;;;23.60;48.10;;;;;;3053935;19;4685;-28
2024/04/06 03:34:31;;;;;;;;;;;23.50;48.10;;;;;;3032488;19;4584;-24
2024/04/06 03:35:32;;;;;;;;;;;23.50;48.10;;;;;;3052401;19;4737;-25
2024/04/06 03:36:32;;;;;;;;;;;23.50;48.00;;;;;;3053928;19;4642;-24
2024/04/06 03:37:33;;;;;;;;;;;23.50;48.10;;;;;;3031937;19;4536;-24
2024/04/06 03:38:34;;;;;;;;;;;23.50;48.00;;;;;;3053428;19;4698;-26
2024/04/06 03:39:34;;;;;;;;;;;23.50;48.00;;;;;;3032530;19;4660;-23
2024/04/06 03:40:35;;;;;;;;;;;23.50;48.10;;;;;;3053525;19;4590;-24
2024/04/06 03:41:35;;;;;;;;;;;23.50;48.20;;;;;;3053043;19;4658;-23
2024/04/06 03:42:36;;;;;;;;;;;23.50;48.20;;;;;;3031271;19;4623;-26
2024/04/06 03:43:37;;;;;;;;;;;23.40;48.20;;;;;;3053584;19;5206;-24
2024/04/06 03:44:39;;;;;;;;;;;23.40;48.10;;;;;;3054231;19;4688;-26
2024/04/06 03:45:40;;;;;;;;;;;23.40;48.20;;;;;;3031652;19;4573;-23
2024/04/06 03:46:41;;;;;;;;;;;23.40;48.30;;;;;;3053241;19;4657;-24
2024/04/06 03:47:41;;;;;;;;;;;23.30;48.30;;;;;;3032427;19;4703;-26
2024/04/06 03:48:42;;;;;;;;;;;23.30;48.30;;;;;;3053426;19;4630;-25
2024/04/06 03:49:43;;;;;;;;;;;23.30;48.40;;;;;;3053938;19;4866;-25
2024/04/06 03:50:43;;;;;;;;;;;23.30;48.40;;;;;;3031998;19;5171;-23
2024/04/06 03:51:44;;;;;;;;;;;23.30;48.40;;;;;;3054112;19;4691;-24
2024/04/06 03:52:45;;;;;;;;;;;23.30;48.40;;;;;;3053200;19;4665;-25
2024/04/06 03:53:45;;;;;;;;;;;23.30;48.40;;;;;;3031888;19;4678;-24
2024/04/06 03:54:46;;;;;;;;;;;23.30;48.40;;;;;;3053547;19;4668;-25
2024/04/06 03:55:46;;;;;;;;;;;23.30;48.40;;;;;;3031196;19;4654;-26
2024/04/06 03:56:47;;;;;;;;;;;23.20;48.30;;;;;;3052835;19;5086;-25
2024/04/06 03:57:48;;;;;;;;;;;23.20;48.40;;;;;;3053191;19;4659;-25
2024/04/06 03:58:49;;;;;;;;;;;23.20;49.10;;;;;;3031561;19;4605;-25
2024/04/06 03:59:49;;;;;;;;;;;23.20;48.50;;;;;;3053463;19;5325;-26
2024/04/06 04:00:50;;;;;;;;;;;23.20;48.50;;;;;;3051577;19;4865;-24
2024/04/06 04:01:51;;;;;;;;;;;23.20;48.50;;;;;;3031485;19;4546;-26
2024/04/06 04:02:51;;;;;;;;;;;23.10;48.50;;;;;;3053190;19;4718;-26
2024/04/06 04:03:52;;;;;;;;;;;23.10;48.50;;;;;;3032249;19;4687;-25
2024/04/06 04:04:52;;;;;;;;;;;23.10;48.50;;;;;;3052965;19;4651;-24
2024/04/06 04:05:53;;;;;;;;;;;23.20;48.70;;;;;;3051856;19;4675;-24
2024/04/06 04:06:54;;;;;;;;;;;23.10;48.60;;;;;;3031472;19;4664;-25
2024/04/06 04:07:54;;;;;;;;;;;23.10;48.60;;;;;;3052893;19;4790;-24
2024/04/06 04:08:55;;;;;;;;;;;23.10;48.70;;;;;;3031588;19;4676;-25
2024/04/06 04:09:56;;;;;;;;;;;23.10;48.70;;;;;;3052943;19;4828;-24
2024/04/06 04:10:57;;;;;;;;;;;23.00;48.60;;;;;;3053362;19;4614;-23
2024/04/06 04:11:58;;;;;;;;;;;23.10;48.60;;;;;;3031551;19;4652;-24
2024/04/06 04:12:58;;;;;;;;;;;23.10;48.70;;;;;;3053586;19;4667;-24
2024/04/06 04:13:59;;;;;;;;;;;23.10;48.60;;;;;;3053973;19;4779;-25
2024/04/06 04:15:00;;;;;;;;;;;23.10;48.60;;;;;;3031465;19;4619;-24
2024/04/06 04:16:01;;;;;;;;;;;23.10;48.80;;;;;;3053766;19;4767;-26
2024/04/06 04:17:02;;;;;;;;;;;23.00;48.50;;;;;;3030054;19;4651;-24
2024/04/06 04:18:02;;;;;;;;;;;23.00;48.50;;;;;;3053199;19;4778;-24
2024/04/06 04:19:03;;;;;;;;;;;23.00;48.60;;;;;;3053825;19;4695;-24
2024/04/06 04:20:04;;;;;;;;;;;23.00;48.50;;;;;;3032281;19;4847;-26
2024/04/06 04:21:05;;;;;;;;;;;23.00;48.60;;;;;;3053409;19;4624;-25
2024/04/06 04:22:05;;;;;;;;;;;23.00;48.70;;;;;;3052819;19;4561;-25
2024/04/06 04:23:06;;;;;;;;;;;23.00;48.60;;;;;;3030147;19;20791;-26
2024/04/06 04:24:07;;;;;;;;;;;23.00;48.60;;;;;;3052155;19;4836;-23
2024/04/06 04:25:07;;;;;;;;;;;23.00;48.70;;;;;;3031439;19;4713;-24
2024/04/06 04:26:08;;;;;;;;;;;23.90;49.20;;;;;;3052823;19;4723;-26
2024/04/06 04:27:09;;;;;;;;;;;23.00;48.60;;;;;;3052174;19;4713;-24
2024/04/06 04:28:09;;;;;;;;;;;23.00;48.60;;;;;;3030414;19;4574;-24
2024/04/06 04:29:10;;;;;;;;;;;23.00;48.60;;;;;;3052389;19;4765;-25
2024/04/06 04:30:11;;;;;;;;;;;23.00;48.60;;;;;;3053104;19;4741;-24
2024/04/06 04:31:13;;;;;;;;;;;23.00;48.70;;;;;;3031722;19;4034;-24
2024/04/06 04:32:14;;;;;;;;;;;23.00;48.70;;;;;;3052086;19;4720;-24
2024/04/06 04:33:14;;;;;;;;;;;22.90;48.60;;;;;;3031189;19;4615;-23
2024/04/06 04:34:15;;;;;;;;;;;22.90;48.60;;;;;;3049928;19;4700;-24
2024/04/06 04:35:16;;;;;;;;;;;22.90;48.60;;;;;;3052779;19;4718;-25
2024/04/06 04:36:16;;;;;;;;;;;23.00;48.60;;;;;;3031220;19;4698;-24
2024/04/06 04:37:17;;;;;;;;;;;23.00;48.40;;;;;;3052787;19;4664;-24
2024/04/06 04:38:18;;;;;;;;;;;23.00;48.30;;;;;;3031639;19;4644;-25
2024/04/06 04:39:18;;;;;;;;;;;23.00;48.30;;;;;;3052479;19;4846;-24
2024/04/06 04:40:19;;;;;;;;;;;23.10;48.30;;;;;;3052951;19;4703;-25
2024/04/06 04:41:20;;;;;;;;;;;23.10;48.20;;;;;;3031291;19;4643;-23
2024/04/06 04:42:20;;;;;;;;;;;23.20;48.00;;;;;;3051405;19;4805;-24
2024/04/06 04:43:21;;;;;;;;;;;23.20;47.90;;;;;;3052388;19;5200;-25
2024/04/06 04:44:21;;;;;;;;;;;23.20;47.80;;;;;;3031276;19;4621;-24
2024/04/06 04:45:22;;;;;;;;;;;23.40;47.70;;;;;;3052338;19;4732;-26
2024/04/06 04:46:23;;;;;;;;;;;23.30;47.60;;;;;;3031042;19;4906;-24
2024/04/06 04:47:23;;;;;;;;;;;23.30;47.60;;;;;;3052478;19;4805;-24
2024/04/06 04:48:24;;;;;;;;;;;23.30;47.50;;;;;;3051092;19;4660;-26
2024/04/06 04:49:25;;;;;;;;;;;23.30;47.40;;;;;;3030322;19;4571;-24
2024/04/06 04:50:26;;;;;;;;;;;23.30;47.40;;;;;;3052259;19;4757;-25
2024/04/06 04:51:26;;;;;;;;;;;23.30;47.30;;;;;;3052921;19;4696;-24
2024/04/06 04:52:27;;;;;;;;;;;23.30;47.30;;;;;;3031103;19;4645;-25
2024/04/06 04:53:28;;;;;;;;;;;23.30;47.30;;;;;;3052157;19;4770;-24
2024/04/06 04:54:28;;;;;;;;;;;23.30;47.30;;;;;;3031356;19;4659;-26
2024/04/06 04:55:29;;;;;;;;;;;23.30;47.20;;;;;;3052816;19;4699;-25
2024/04/06 04:56:30;;;;;;;;;;;23.30;47.20;;;;;;3052632;19;4808;-25
2024/04/06 04:57:30;;;;;;;;;;;23.30;47.20;;;;;;3030721;19;4596;-25
2024/04/06 04:58:31;;;;;;;;;;;23.30;47.20;;;;;;3052866;19;4856;-25
2024/04/06 04:59:32;;;;;;;;;;;23.30;47.10;;;;;;3047120;19;4693;-25
2024/04/06 05:00:32;;;;;;;;;;;23.30;47.10;;;;;;3043078;19;4711;-26
2024/04/06 05:01:33;;;;;;;;;;;23.30;47.10;;;;;;3052974;19;4621;-23
2024/04/06 05:02:33;;;;;;;;;;;23.30;47.10;;;;;;3031192;19;4769;-25
2024/04/06 05:03:34;;;;;;;;;;;23.30;47.20;;;;;;3052315;19;4665;-24
2024/04/06 05:04:35;;;;;;;;;;;23.30;47.10;;;;;;3053316;19;4608;-24
2024/04/06 05:05:35;;;;;;;;;;;23.30;47.10;;;;;;3031014;19;4590;-24
2024/04/06 05:06:36;;;;;;;;;;;23.30;47.00;;;;;;3051496;19;4815;-25
2024/04/06 05:07:37;;;;;;;;;;;23.30;47.00;;;;;;3030492;19;4731;-26
2024/04/06 05:08:37;;;;;;;;;;;23.30;47.10;;;;;;3052572;19;4623;-27
2024/04/06 05:09:38;;;;;;;;;;;23.30;47.10;;;;;;3051789;19;4634;-24
2024/04/06 05:10:40;;;;;;;;;;;23.20;47.00;;;;;;3030224;19;4677;-26
2024/04/06 05:11:41;;;;;;;;;;;23.30;47.00;;;;;;3052066;19;5258;-25
2024/04/06 05:12:42;;;;;;;;;;;23.30;47.00;;;;;;3053102;19;4658;-24
2024/04/06 05:13:42;;;;;;;;;;;23.30;47.00;;;;;;3030944;19;4535;-23
2024/04/06 05:14:43;;;;;;;;;;;23.30;47.10;;;;;;3051867;19;4641;-24
2024/04/06 05:15:52;;;;;;;;;;;23.20;47.10;;;;;;3030091;19;4649;-23
2024/04/06 05:16:53;;;;;;;;;;;23.20;47.80;;;;;;3052414;19;4655;-24
2024/04/06 05:17:54;;;;;;;;;;;23.10;47.30;;;;;;3052776;19;4592;-23
2024/04/06 05:18:55;;;;;;;;;;;23.10;47.40;;;;;;3031480;19;4744;-23
2024/04/06 05:19:56;;;;;;;;;;;23.10;47.60;;;;;;3051658;19;4676;-24
2024/04/06 05:21:01;;;;;;;;;;;23.10;47.70;;;;;;3031600;19;4830;-25
2024/04/06 05:22:02;;;;;;;;;;;23.10;47.70;;;;;;3052116;19;4619;-23
2024/04/06 05:23:02;;;;;;;;;;;23.10;47.90;;;;;;3053031;19;4673;-25
2024/04/06 05:24:03;;;;;;;;;;;23.00;47.80;;;;;;3030817;19;4606;-24
2024/04/06 05:25:04;;;;;;;;;;;23.00;47.90;;;;;;3051934;19;4732;-24
2024/04/06 05:26:04;;;;;;;;;;;23.00;47.90;;;;;;3052471;19;4631;-24
2024/04/06 05:27:05;;;;;;;;;;;23.00;47.90;;;;;;3030277;19;4613;-25
2024/04/06 05:28:06;;;;;;;;;;;23.00;48.10;;;;;;3052291;19;4591;-24
2024/04/06 05:29:07;;;;;;;;;;;23.00;48.00;;;;;;3030530;19;4597;-25
2024/04/06 05:30:08;;;;;;;;;;;23.00;48.00;;;;;;3052227;19;1091;-25
2024/04/06 05:31:09;;;;;;;;;;;23.00;47.90;;;;;;3052304;19;4613;-23
2024/04/06 05:32:09;;;;;;;;;;;23.00;47.80;;;;;;3030621;19;4606;-23
2024/04/06 05:33:10;;;;;;;;;;;23.00;47.80;;;;;;3051483;19;4634;-24
2024/04/06 05:34:11;;;;;;;;;;;23.00;47.80;;;;;;3052613;19;4688;-25
2024/04/06 05:35:12;;;;;;;;;;;23.00;47.80;;;;;;3029119;19;22186;-24
2024/04/06 05:36:14;;;;;;;;;;;23.00;47.80;;;;;;3052011;19;4779;-24
2024/04/06 05:37:14;;;;;;;;;;;23.00;47.80;;;;;;3030871;19;4545;-24
2024/04/06 05:38:16;;;;;;;;;;;23.00;47.80;;;;;;3052923;19;1283;-24
2024/04/06 05:39:17;;;;;;;;;;;23.00;47.80;;;;;;3051822;19;7642;-24
2024/04/06 05:40:17;;;;;;;;;;;23.00;47.80;;;;;;3030552;19;4587;-24
2024/04/06 05:41:18;;;;;;;;;;;23.00;47.60;;;;;;3051967;19;4679;-23
2024/04/06 05:42:18;;;;;;;;;;;23.10;47.50;;;;;;3030331;19;4735;-26
2024/04/06 05:43:19;;;;;;;;;;;23.10;47.50;;;;;;3052164;19;4665;-25
2024/04/06 05:44:22;;;;;;;;;;;23.10;47.50;;;;;;3052076;19;4695;-25
2024/04/06 05:45:22;;;;;;;;;;;23.10;47.60;;;;;;3029108;19;4637;-24
2024/04/06 05:46:23;;;;;;;;;;;22.80;47.40;;;;;;3051976;19;4774;-24
2024/04/06 05:47:24;;;;;;;;;;;23.10;47.50;;;;;;3052604;19;4651;-32
2024/04/06 05:48:24;;;;;;;;;;;23.10;47.50;;;;;;3030110;19;4576;-32
2024/04/06 05:49:25;;;;;;;;;;;23.10;47.60;;;;;;3051816;19;4754;-34
2024/04/06 05:50:25;;;;;;;;;;;23.10;47.60;;;;;;3030409;19;4689;-34
2024/04/06 05:51:27;;;;;;;;;;;23.10;47.70;;;;;;3050978;19;4650;-32
2024/04/06 05:52:28;;;;;;;;;;;23.10;47.60;;;;;;3051960;19;4843;-30
2024/04/06 05:53:28;;;;;;;;;;;23.10;47.60;;;;;;3027535;19;4480;-33
2024/04/06 05:54:29;;;;;;;;;;;23.10;47.60;;;;;;3049764;19;4817;-32
2024/04/06 05:55:30;;;;;;;;;;;23.00;47.60;;;;;;3049635;19;4761;-32
2024/04/06 05:56:31;;;;;;;;;;;23.00;47.60;;;;;;3026976;19;12521;-25
2024/04/06 05:57:32;;;;;;;;;;;23.00;47.60;;;;;;3048972;19;4648;-31
2024/04/06 05:58:32;;;;;;;;;;;23.00;47.60;;;;;;3028318;19;4690;-35